San Carlos Airport

Current Flights

Departures
Number Departure To Airline
 N823FW 15:45 +11  Burbank  National Airlines
Arrivals
Number Arrival From Airline
 N580W NA  North Bend Private owner
Info
Name: San Carlos Airport
Identifier:  SQL/KSQL
Local Time:  16. Jun 07:24
City
Flights per Day
7 flights
Distance: 495km (307mi)
Punctuality
81% (1 flights per day delayed)
Delay Average: 14 minutes
Current Weather
 14 C (Humidity: 76%)
  6kt (11km/h / 6mph) from 240°
  Few clouds at 1,500 feet (457 meter)
  Broken clouds at 20,000 feet (6,096 meter)
  16km (10 mi.)
 METAR KSQL 160353Z 24006KT 10SM FEW015 BKN200 14/10 A2995 RMK LAST

Current Delays

Departures
N/A
Arrivals
N/A

Destinations

Top Destinations
Airport Flights
per week
Seats
per week
  Hawthorne (HHR) 14 - 2 0
  Santa Barbara (SBA) 13 - 1 0
  Truckee (TKF) 6 - 0 0
  Half Moon Bay (HAF) 3 - 0 0
  Sacramento (SAC) 2 - 0 0
  Santa Monica (SMO) 2 79 0 11
  San Luis Obispo (SBP) 2 - 0 0
  Van Nuys (VNY) 2 - 0 0
  Sacramento (MHR) 2 - 0 0
  Livermore (LVK) 2 - 0 0

Airlines & Planes

Top Airlines
Airline Flights
per Day
Seats
per Day
Surf Air 2 -
  Nolinor Aviation 1 -
Jet Charter Inc ( Franklin Lakes Nj ) 1 -
Nordwind Airlines 1 -
  Novair 1 -
  Flybe Nordic 0 -
  National Airlines 0 -
  Cathay Pacific 0 11
Mokulele Airlines 0 -
Top Plane Types
Model Flights Seats
Pilatus PC-12 4.5/day - 0
Cirrus SR22 1.0/day - 0
Cessna C172 1.0/day - 0
Piper PA28-181 0.4/day - 0
Beech B200 Super King Air 0.3/day - 0